• Join FlightAware (Why Join?)
  • Login
  • US Flag 
10:25AM EST


 

Airport Tracker/Info


-or-


 

Live Flight TrackerFlight Track Log ✈ RPA3159 ✈ 11-Jul-2013 ✈ KBTV - KPHL

Flight Track Log - Related Links

Times and Time Zones

All times are in EDT time to prevent confusion due to time zone crossing. See the RPA3159 flight status page for this flight to view local times or setup timezone preferences in your user account.

Time Position Orientation Groundspeed Altitude Reporting Facility
EDT Latitude Longitude Course Direction KTS MPH feet Rate Location/Type
12:23PM 44.2016 -73.2500 180° South  Level FlightAware Approximate
12:24PM 44.1127 -73.2828 195° South  Level FlightAware Approximate
12:24PM 44.3019 -73.3044 198° South 296 341 9,400  Level Boston Center
12:25PM 44.0234 -73.3144 194° South  Level FlightAware Approximate
12:25PM 44.2119 -73.3322 192° South 302 348 11,500  Level Boston Center
12:26PM 43.9339 -73.3443 193° South  Level FlightAware Approximate
12:26PM 44.1344 -73.3831 205° Southwest 307 353 13,600  Level Boston Center
12:27PM 43.8358 -73.3804 195° South  Level FlightAware Approximate
12:27PM 44.0569 -73.4453 210° Southwest 320 368 15,600  Level Boston Center
12:28PM 43.7379 -73.4171 195° South  Level FlightAware Approximate
12:28PM 43.9814 -73.5106 212° Southwest 325 374 17,400  Level Boston Center
12:29PM 43.6402 -73.4545 198° South  Level FlightAware Approximate
12:29PM 43.8994 -73.5781 211° Southwest 335 386 19,100  Level Boston Center
12:30PM 43.5438 -73.4983 198° South  Level FlightAware Approximate
12:30PM 43.8194 -73.6458 211° Southwest 341 392 20,900  Level Boston Center
12:31PM 43.7356 -73.7131 210° Southwest 341 392 22,200 1,260 Climbing Boston Center
12:32PM 43.6533 -73.7803 211° Southwest 341 392 23,800 1,500 Climbing Boston Center
12:33PM 43.5525 -73.8611 210° Southwest 341 392 25,500 1,080 Climbing Boston Center
12:34PM 43.4703 -73.9278 210° Southwest 341 392 26,000 240 Climbing Boston Center
12:35PM 43.4028 -73.9803 209° Southwest 341 392 26,000  Level Boston Center
12:36PM 43.3100 -74.0581 211° Southwest 346 398 26,000  Level Boston Center
12:37PM 43.2258 -74.1269 211° Southwest 346 398 26,000  Level Boston Center
12:38PM 43.1433 -74.1931 210° Southwest 346 398 26,000  Level Boston Center
12:39PM 43.0589 -74.2617 211° Southwest 346 398 26,000  Level Boston Center
12:41PM 42.9744 -74.3272 210° Southwest 346 398 26,000  Level Boston Center
12:42PM 42.8708 -74.4147 212° Southwest 353 406 26,000  Level Boston Center
12:43PM 42.8075 -74.4664 211° Southwest 358 412 26,000  Level Boston Center
12:44PM 42.7039 -74.5478 210° Southwest 363 418 26,000  Level Boston Center
12:45PM 42.6150 -74.6181 210° Southwest 368 423 26,000  Level Boston Center
12:46PM 42.5303 -74.6856 210° Southwest 368 423 26,000 -60 Level Boston Center
12:47PM 42.4436 -74.7528 210° Southwest 368 423 25,900 -960 Descending Boston Center
12:48PM 42.3525 -74.8225 209° Southwest 362 417 23,900 -1,800 Descending Boston Center
12:49PM 42.2547 -74.9031 211° Southwest 357 411 22,000 -1,440 Descending Boston Center
12:51PM 42.0606 -75.0531 210° Southwest 346 398 19,200 -900 Descending New York Center
12:52PM 41.9811 -75.1233 213° Southwest 346 398 19,000 -120 Descending New York Center
12:53PM 41.9017 -75.1878 211° Southwest 346 398 19,000  Level New York Center
12:54PM 41.8286 -75.2469 211° Southwest 353 406 19,000 -540 Level New York Center
12:55PM 41.7469 -75.3136 211° Southwest 348 400 18,000 -1,380 Descending New York Center
12:56PM 41.6589 -75.3825 210° Southwest 348 400 16,300 -1,620 Descending New York Center
12:57PM 41.5794 -75.4464 211° Southwest 348 400 14,800 -1,620 Descending New York Center
12:58PM 41.5019 -75.5103 212° Southwest 348 400 13,100 -1,440 Descending New York Center
12:59PM 41.4331 -75.5636 210° Southwest 338 389 12,000 -600 Descending New York Center
01:00PM 41.3469 -75.6319 211° Southwest 333 383 12,000  Level New York Center
01:01PM 41.2656 -75.6842 206° Southwest 333 383 12,000  Level New York Center
01:02PM 41.1739 -75.6886 182° South 326 375 12,000 -300 Level New York Center
01:03PM 41.0822 -75.6900 181° South 337 388 11,500 -960 Descending New York Center
01:04PM 40.9933 -75.6728 172° South 332 382 10,100 -780 Descending New York Center
01:05PM 40.9094 -75.6364 162° South 315 362 10,000 -60 Descending New York Center
01:06PM 40.8253 -75.6003 162° South 315 362 10,000  Level New York Center
01:07PM 40.7475 -75.5647 161° South 321 369 10,000  Level New York Center
01:08PM 40.6617 -75.5258 161° South 321 369 10,000  Level New York Center
01:09PM 40.5717 -75.4867 162° South 316 364 10,000 -300 Level New York Center
01:10PM 40.4917 -75.4511 161° South 316 364 9,400 -660 Descending New York Center
01:11PM 40.4222 -75.4167 159° South 306 352 8,800 -1,080 Descending New York Center
01:12PM 40.3386 -75.3672 156° South 300 345 7,300 -960 Descending New York Center
01:13PM 40.2633 -75.3242 156° South 294 338 6,900 -660 Descending New York Center
01:14PM 40.1878 -75.2839 158° South 295 339 6,000 -480 Descending New York Center
01:15PM 40.1142 -75.2411 156° South 296 341 6,000  Level New York Center
01:16PM 40.0500 -75.2000 154° Southeast 282 325 6,000  Level Philadelphia TRACON
01:17PM 40.0000 -75.1833 166° South 221 254 6,000  Level Philadelphia TRACON
01:18PM 39.9833 -75.1167 108° East 209 241 6,000 -60 Level Philadelphia TRACON
01:19PM 40.0000 -75.0333 75° East 210 242 5,900 -720 Descending Philadelphia TRACON
01:20PM 40.0167 -74.9833 66° East 188 216 4,600 -960 Descending Philadelphia TRACON
01:21PM 39.9667 -74.9500 153° Southeast 183 211 4,000 -300 Descending Philadelphia TRACON
01:22PM 39.9333 -74.9333 159° South 194 223 4,000  Level Philadelphia TRACON
01:23PM 39.9333 -74.8667 90° East 190 219 4,000 -540 Level Philadelphia TRACON
01:24PM 39.9500 -74.9167 294° West 183 211 3,000 -540 Descending Philadelphia TRACON
01:25PM 39.9167 -74.9833 237° Southwest 184 212 3,000  Level Philadelphia TRACON